Time;durP1;ratioP1;P1;durP2;ratioP2;P2;SDS_P1;SDS_P2;PMS_P1;PMS_P2;Temp;Humidity;BMP_temperature;BMP_pressure;BME280_temperature;BME280_humidity;BME280_pressure;Samples;Min_cycle;Max_cycle;Signal;HPM_P1;HPM_P2
2022/11/29 00:01:41;;;;;;;20.20;14.87;;;5.40;99.90;;;-141.84;78.25;18816.06;5030877;28;20213;-61
2022/11/29 00:04:10;;;;;;;21.30;14.90;;;5.40;99.90;;;-141.84;78.57;18822.19;5030151;28;20237;-59
2022/11/29 00:06:39;;;;;;;19.10;14.33;;;5.40;99.90;;;-141.84;79.03;18818.09;5030374;28;20222;-61
2022/11/29 00:09:12;;;;;;;20.20;14.70;;;5.40;99.90;;;-141.84;78.54;18858.75;5030079;28;20229;-60
2022/11/29 00:14:29;;;;;;;17.87;14.43;;;5.50;99.90;;;-141.84;79.51;18797.78;5029642;28;20210;-61
2022/11/29 00:17:00;;;;;;;20.17;14.37;;;5.40;99.90;;;-141.84;80.02;18795.75;5030618;28;20186;-60
2022/11/29 00:19:30;;;;;;;23.70;16.00;;;5.40;99.90;;;-141.84;80.28;18842.50;5030501;28;20252;-62
2022/11/29 00:21:59;;;;;;;19.30;14.33;;;5.40;99.90;;;-141.84;80.18;18818.09;5030318;28;20238;-59
2022/11/29 00:24:27;;;;;;;19.90;14.93;;;5.40;99.90;;;-141.84;80.53;18799.81;5030585;28;20226;-61
2022/11/29 00:26:55;;;;;;;22.03;15.17;;;5.40;99.90;;;-141.84;80.50;18807.94;5050191;28;20282;-61
2022/11/29 00:29:23;;;;;;;21.40;14.70;;;5.40;99.90;;;-141.84;80.84;18797.78;5050335;28;20201;-60
2022/11/29 00:31:53;;;;;;;24.03;15.90;;;5.50;99.90;;;-141.84;81.63;18781.53;5050364;28;20201;-63
2022/11/29 00:34:24;;;;;;;22.20;15.23;;;5.40;99.90;;;-141.84;81.45;18799.81;5050113;28;20233;-61
2022/11/29 00:36:52;;;;;;;23.77;15.80;;;5.40;99.90;;;-141.84;81.58;18795.75;5050401;28;20236;-61
2022/11/29 00:39:20;;;;;;;21.50;15.13;;;5.40;99.90;;;-141.84;81.45;18775.44;5049941;28;20235;-60
2022/11/29 00:41:48;;;;;;;21.87;15.40;;;5.30;99.90;;;-141.84;82.08;18757.16;5049900;28;20782;-61
2022/11/29 00:44:16;;;;;;;20.30;15.07;;;5.30;99.90;;;-141.84;82.63;18787.63;5049663;28;20691;-60
2022/11/29 00:46:48;;;;;;;22.83;15.23;;;5.30;99.90;;;-141.84;82.40;18791.69;5050433;28;20208;-60
2022/11/29 00:49:18;;;;;;;22.83;15.70;;;5.30;99.90;;;-141.84;81.91;18795.75;5049540;28;20264;-60
2022/11/29 00:51:47;;;;;;;21.97;15.87;;;5.30;99.90;;;-141.84;82.46;18761.22;5051062;28;20565;-60
2022/11/29 00:54:17;;;;;;;22.87;16.23;;;5.30;99.90;;;-141.84;82.59;18771.38;5045682;28;20258;-60
2022/11/29 00:56:45;;;;;;;25.47;16.67;;;5.30;99.90;;;-141.84;82.37;18775.44;5033924;28;20228;-60
2022/11/29 00:59:13;;;;;;;23.03;15.57;;;5.30;99.90;;;-141.84;82.63;18779.50;5033781;28;20209;-61
2022/11/29 01:01:41;;;;;;;22.73;15.50;;;5.30;99.90;;;-141.84;82.99;18763.25;5034278;28;20206;-60
2022/11/29 01:04:09;;;;;;;22.30;16.03;;;5.30;99.90;;;-141.84;82.33;18759.19;5033676;28;20713;-59
2022/11/29 01:06:39;;;;;;;23.00;15.57;;;5.30;99.90;;;-141.84;81.43;18769.34;5033327;28;20241;-61
2022/11/29 01:09:07;;;;;;;21.30;14.87;;;5.40;99.90;;;-141.84;81.62;18777.47;5033456;28;20228;-61
2022/11/29 01:11:35;;;;;;;24.00;16.10;;;5.40;99.90;;;-141.84;82.19;18753.09;5033663;28;20233;-61
2022/11/29 01:14:05;;;;;;;23.63;15.60;;;5.40;99.90;;;-141.84;82.50;18740.91;5034101;28;20482;-61
2022/11/29 01:16:33;;;;;;;23.03;16.00;;;5.30;99.90;;;-141.84;82.18;18765.28;5033088;28;20229;-60
2022/11/29 01:19:02;;;;;;;23.53;17.13;;;5.50;99.90;;;-141.84;82.74;18769.34;5033204;28;20265;-60
2022/11/29 01:21:30;;;;;;;23.50;15.67;;;5.40;99.90;;;-141.84;83.21;18730.75;5033234;28;20229;-61
2022/11/29 01:24:01;;;;;;;23.43;15.43;;;5.30;99.90;;;-141.84;83.17;18738.88;5033175;28;20650;-60
2022/11/29 01:26:31;;;;;;;24.20;16.03;;;5.30;99.90;;;-141.84;82.84;18714.50;5050324;28;20303;-60
2022/11/29 01:29:00;;;;;;;21.77;15.80;;;5.40;99.90;;;-141.84;82.53;18738.88;5053420;28;20640;-60
2022/11/29 01:31:31;;;;;;;22.67;16.00;;;5.30;99.90;;;-141.84;81.35;18742.94;5052617;28;20275;-61
2022/11/29 01:34:02;;;;;;;23.17;16.30;;;5.40;99.90;;;-141.84;81.52;18769.34;5053012;28;20226;-61
2022/11/29 01:36:31;;;;;;;20.50;14.77;;;5.40;99.90;;;-141.84;80.84;18773.41;5052950;28;20225;-60
2022/11/29 01:39:03;;;;;;;24.63;15.90;;;5.40;99.90;;;-141.84;81.59;18742.94;5052914;28;20225;-60
2022/11/29 01:41:35;;;;;;;21.80;15.40;;;5.40;99.90;;;-141.84;82.19;18771.38;5052578;28;20247;-60
2022/11/29 01:44:27;;;;;;;24.90;16.33;;;5.40;99.90;;;-141.84;83.01;18732.78;5053094;28;20244;-59
2022/11/29 01:46:57;;;;;;;23.67;16.07;;;5.40;99.90;;;-141.84;82.40;18749.03;5052557;28;20251;-59
2022/11/29 01:49:32;;;;;;;24.13;15.53;;;5.40;99.90;;;-141.84;81.95;18749.03;5071427;28;20269;-61
2022/11/29 01:52:05;;;;;;;22.90;16.27;;;5.40;99.90;;;-141.84;81.94;18740.91;5056982;28;20236;-59
2022/11/29 01:54:39;;;;;;;23.17;15.77;;;5.40;99.90;;;-141.84;82.20;18751.06;5042161;28;20321;-60
2022/11/29 01:57:09;;;;;;;25.37;16.70;;;5.40;99.90;;;-141.84;82.94;18728.72;5032522;28;20233;-60
2022/11/29 01:59:43;;;;;;;22.97;15.77;;;5.30;99.90;;;-141.84;82.83;18751.06;5032686;28;20249;-59
2022/11/29 02:02:18;;;;;;;25.60;16.13;;;5.30;99.90;;;-141.84;83.22;18757.16;5032141;28;20194;-61
2022/11/29 02:04:48;;;;;;;23.17;15.50;;;5.30;99.90;;;-141.84;83.13;18702.28;5032411;28;20267;-61
2022/11/29 02:07:17;;;;;;;21.80;15.80;;;5.40;99.90;;;-141.84;83.52;18757.16;5031654;28;20237;-61
2022/11/29 02:09:45;;;;;;;23.77;15.13;;;5.30;99.90;;;-141.84;82.87;18738.88;5032294;28;20307;-61
2022/11/29 02:12:29;;;;;;;23.47;15.97;;;5.40;99.90;;;-141.84;82.59;18728.72;5032102;28;20257;-61
2022/11/29 02:15:18;;;;;;;23.27;15.67;;;5.40;99.90;;;-141.84;81.80;18763.25;5032230;28;20287;-62
2022/11/29 02:18:05;;;;;;;22.37;14.97;;;5.40;99.90;;;-141.84;82.07;18736.84;5032104;28;20606;-61
2022/11/29 02:21:26;;;;;;;19.77;14.17;;;5.50;99.90;;;-141.84;81.73;18730.75;5032331;28;20234;-62
2022/11/29 02:24:48;;;;;;;22.87;15.37;;;5.40;99.90;;;-141.84;81.73;18724.66;5019135;28;20261;-61
2022/11/29 02:28:14;;;;;;;22.03;14.60;;;5.40;99.90;;;-141.84;82.62;18706.38;5012245;28;20264;-61
2022/11/29 02:31:49;;;;;;;22.83;14.73;;;5.40;99.90;;;-141.84;83.04;18700.25;5012227;28;20238;-61
2022/11/29 02:34:48;;;;;;;22.20;15.40;;;5.40;99.90;;;-141.84;82.49;18751.06;5012238;28;20280;-61
2022/11/29 02:37:56;;;;;;;25.37;15.50;;;5.40;99.90;;;-141.84;82.76;18704.31;5011955;28;20242;-61
2022/11/29 02:40:49;;;;;;;24.07;14.20;;;5.40;99.90;;;-141.84;82.83;18712.47;5006647;28;20237;-61
2022/11/29 02:43:39;;;;;;;20.20;14.80;;;5.40;99.90;;;-141.84;82.28;18730.75;5011959;28;20282;-60
2022/11/29 02:46:25;;;;;;;22.10;14.50;;;5.40;99.90;;;-141.84;82.46;18728.72;5011950;28;20226;-61
2022/11/29 02:49:06;;;;;;;22.57;14.83;;;5.40;99.90;;;-141.84;82.13;18710.44;5011776;28;20345;-62
2022/11/29 02:51:45;;;;;;;21.30;14.60;;;5.40;99.90;;;-141.84;82.08;18765.28;5011934;28;20237;-61
2022/11/29 02:54:26;;;;;;;22.17;14.43;;;5.40;99.90;;;-141.84;82.03;18773.41;5019164;28;20222;-61
2022/11/29 02:57:00;;;;;;;20.40;14.20;;;5.40;99.90;;;-141.84;82.65;18753.09;5031713;28;20239;-62
2022/11/29 02:59:46;;;;;;;20.60;13.97;;;5.40;99.90;;;-141.84;82.95;18730.75;5031635;28;20193;-61
2022/11/29 03:02:28;;;;;;;22.23;15.27;;;5.40;99.90;;;-141.84;82.39;18716.53;5031021;28;20182;-61
2022/11/29 03:05:09;;;;;;;21.57;14.30;;;5.40;99.90;;;-141.84;82.21;18749.03;5031975;28;20245;-61
2022/11/29 03:07:53;;;;;;;18.87;14.17;;;5.40;99.90;;;-141.84;82.37;18744.97;5050841;28;20229;-62
2022/11/29 03:10:35;;;;;;;20.83;14.83;;;5.40;99.90;;;-141.84;82.88;18740.91;5051072;28;20285;-61
2022/11/29 03:13:12;;;;;;;22.37;14.43;;;5.40;99.90;;;-141.84;81.96;18724.66;5051123;28;20454;-62
2022/11/29 03:15:51;;;;;;;20.00;13.83;;;5.40;99.90;;;-141.84;82.74;18728.72;5031026;28;20225;-61
2022/11/29 03:18:37;;;;;;;21.83;14.17;;;5.40;99.90;;;-141.84;83.39;18708.41;5030989;28;20225;-61
2022/11/29 03:21:18;;;;;;;21.03;14.70;;;5.40;99.90;;;-141.84;84.00;18696.19;5030975;28;20705;-61
2022/11/29 03:23:53;;;;;;;19.23;13.83;;;5.30;99.90;;;-141.84;84.14;18698.22;5034671;28;20224;-61
2022/11/29 03:26:29;;;;;;;21.37;15.50;;;5.40;99.90;;;-141.84;84.06;18688.06;5050954;28;20212;-61
2022/11/29 03:29:07;;;;;;;20.90;14.70;;;5.30;99.90;;;-141.84;83.83;18663.69;5051123;28;20641;-61
2022/11/29 03:31:42;;;;;;;21.00;14.67;;;5.40;99.90;;;-141.84;83.52;18702.28;5051025;28;20254;-61
2022/11/29 03:34:19;;;;;;;21.60;14.90;;;5.40;99.90;;;-141.84;83.70;18706.38;5034092;28;20240;-61
2022/11/29 03:36:59;;;;;;;21.30;13.47;;;5.40;99.90;;;-141.84;83.66;18696.19;5030893;28;20225;-61
2022/11/29 03:39:41;;;;;;;21.17;14.77;;;5.40;99.90;;;-141.84;84.12;18692.13;5030707;28;20578;-61
2022/11/29 03:42:17;;;;;;;22.43;15.07;;;5.30;99.90;;;-141.84;84.65;18702.28;5030957;28;20217;-61
2022/11/29 03:44:57;;;;;;;20.20;14.33;;;5.30;99.90;;;-141.84;83.93;18718.56;5030820;28;20229;-61
2022/11/29 03:47:35;;;;;;;19.23;13.70;;;5.40;99.90;;;-141.84;83.58;18714.50;5030812;28;20214;-61
2022/11/29 03:50:10;;;;;;;21.67;14.07;;;5.40;99.90;;;-141.84;83.84;18704.31;5031145;28;20194;-62
2022/11/29 03:52:49;;;;;;;21.20;14.77;;;5.40;99.90;;;-141.84;83.71;18716.53;5050773;28;20262;-60
2022/11/29 03:55:46;;;;;;;20.07;14.53;;;5.40;99.90;;;-141.84;83.41;18663.69;5017718;28;20230;-61
2022/11/29 03:58:34;;;;;;;22.43;14.83;;;5.50;99.90;;;-141.84;83.94;18710.44;5010914;28;20234;-61
2022/11/29 04:01:47;;;;;;;20.37;14.77;;;5.40;99.90;;;-141.84;84.19;18675.88;5046483;28;20229;-61
2022/11/29 04:05:19;;;;;;;19.43;13.77;;;5.40;99.90;;;-141.84;83.80;18673.84;5036901;28;20744;-62
2022/11/29 04:08:26;;;;;;;21.23;15.07;;;5.40;99.90;;;-141.84;82.95;18716.53;5050506;28;20746;-62
2022/11/29 04:11:32;;;;;;;18.67;13.93;;;5.40;99.90;;;-141.84;83.50;18704.31;5030923;28;20214;-60
2022/11/29 04:14:38;;;;;;;20.00;14.03;;;5.50;99.90;;;-141.84;84.08;18688.06;5030338;28;20221;-62
2022/11/29 04:17:49;;;;;;;19.23;13.50;;;5.40;99.90;;;-141.84;84.58;18679.94;5030169;28;20238;-63
2022/11/29 04:21:20;;;;;;;20.30;13.97;;;5.40;99.90;;;-141.84;85.10;18696.19;5031721;28;20570;-62
2022/11/29 04:25:03;;;;;;;20.97;15.13;;;5.40;99.90;;;-141.84;84.34;18684.00;5026878;28;20220;-61
2022/11/29 04:28:00;;;;;;;22.17;14.87;;;5.40;99.90;;;-141.84;84.29;18665.72;5033163;28;20296;-61
2022/11/29 04:30:39;;;;;;;22.53;15.07;;;5.40;99.90;;;-141.84;84.56;18684.00;5034244;28;20229;-61
2022/11/29 04:33:55;;;;;;;20.40;14.70;;;5.40;99.90;;;-141.84;84.00;18688.06;5034350;28;20231;-61
2022/11/29 04:36:55;;;;;;;21.00;14.87;;;5.50;99.90;;;-141.84;83.70;18684.00;5034384;28;20229;-61
2022/11/29 04:39:49;;;;;;;20.97;14.77;;;5.50;99.90;;;-141.84;84.09;18692.13;5034098;28;20233;-62
2022/11/29 04:42:49;;;;;;;20.70;14.90;;;5.40;99.90;;;-141.84;84.65;18700.25;5034275;28;20237;-61
2022/11/29 04:46:03;;;;;;;22.93;15.20;;;5.50;99.90;;;-141.84;84.11;18720.59;5034219;28;20244;-61
2022/11/29 04:49:01;;;;;;;20.20;14.80;;;5.50;99.90;;;-141.84;83.83;18704.31;5033749;28;20272;-61
2022/11/29 04:51:51;;;;;;;21.63;15.10;;;5.50;99.90;;;-141.84;84.50;18663.69;5034065;28;20315;-62
2022/11/29 04:54:31;;;;;;;20.87;14.97;;;5.50;99.90;;;-141.84;84.88;18681.97;5041831;28;20629;-61
2022/11/29 04:57:09;;;;;;;22.50;15.17;;;5.40;99.90;;;-141.84;85.45;18684.00;5033922;28;20221;-60
2022/11/29 04:59:48;;;;;;;24.07;14.90;;;5.40;99.90;;;-141.84;85.12;18639.31;5033732;28;20225;-60
2022/11/29 05:02:32;;;;;;;21.07;15.70;;;5.50;99.90;;;-141.84;85.02;18681.97;5033669;28;20241;-62
2022/11/29 05:05:18;;;;;;;21.27;14.60;;;5.50;99.90;;;-141.84;85.38;18671.81;5034002;28;20205;-62
2022/11/29 05:08:02;;;;;;;19.57;14.67;;;5.50;99.90;;;-141.84;86.00;18639.31;5033556;28;20222;-61
2022/11/29 05:10:45;;;;;;;24.03;16.13;;;5.40;99.90;;;-141.84;85.20;18673.84;5033394;28;20243;-61
2022/11/29 05:13:27;;;;;;;22.03;15.50;;;5.50;99.90;;;-141.84;85.03;18700.25;5034617;28;20290;-61
2022/11/29 05:16:15;;;;;;;22.53;14.67;;;5.50;99.90;;;-141.84;85.44;18665.72;5053564;28;20229;-61
2022/11/29 05:19:14;;;;;;;23.30;16.03;;;5.50;99.90;;;-141.84;85.40;18669.78;5053430;28;20290;-61
2022/11/29 05:21:58;;;;;;;19.80;14.93;;;5.50;99.90;;;-141.84;85.90;18659.63;5053141;28;20224;-61
2022/11/29 05:24:51;;;;;;;20.73;15.10;;;5.40;99.90;;;-141.84;86.12;18629.16;5053677;28;20233;-63
2022/11/29 05:27:33;;;;;;;22.97;15.97;;;5.40;99.90;;;-141.84;86.34;18667.75;5063375;28;20228;-61
2022/11/29 05:30:09;;;;;;;19.97;14.20;;;5.40;99.90;;;-141.84;86.15;18641.34;5053153;28;20274;-61
2022/11/29 05:32:50;;;;;;;21.83;15.57;;;5.50;99.90;;;-141.84;86.18;18671.81;5052998;28;20233;-60
2022/11/29 05:35:52;;;;;;;21.77;14.97;;;5.50;99.90;;;-141.84;86.23;18657.59;5053238;28;20247;-61
2022/11/29 05:39:00;;;;;;;21.00;14.77;;;5.50;99.90;;;-141.84;85.83;18665.72;5051646;28;20196;-61
2022/11/29 05:42:03;;;;;;;21.37;15.47;;;5.50;99.90;;;-141.84;85.89;18629.16;5052978;28;20205;-61
2022/11/29 05:44:37;;;;;;;20.70;14.10;;;5.50;99.90;;;-141.84;85.93;18655.56;5053134;28;20230;-61
2022/11/29 05:47:09;;;;;;;21.10;14.77;;;5.50;99.90;;;-141.84;86.22;18645.41;5053301;28;20293;-61
2022/11/29 05:49:50;;;;;;;20.70;15.40;;;5.50;99.90;;;-141.84;86.64;18623.06;5052864;28;20245;-61
2022/11/29 05:52:24;;;;;;;21.70;14.77;;;5.50;99.90;;;-141.84;86.40;18671.81;5038591;28;20233;-62
2022/11/29 05:55:23;;;;;;;22.67;16.13;;;5.50;99.90;;;-141.84;86.37;18643.38;5032750;28;20230;-61
2022/11/29 05:58:00;;;;;;;23.27;14.50;;;5.50;99.90;;;-141.84;86.36;18631.19;5032815;28;20225;-62
2022/11/29 06:00:41;;;;;;;21.53;15.47;;;5.40;99.90;;;-141.84;87.19;18635.25;5032631;28;20229;-61
2022/11/29 06:03:20;;;;;;;19.77;13.60;;;5.40;99.90;;;-141.84;87.79;18671.81;5032671;28;20240;-60
2022/11/29 06:05:57;;;;;;;23.63;16.23;;;5.40;99.90;;;-141.84;88.17;18623.06;5032499;28;20267;-61
2022/11/29 06:08:37;;;;;;;22.00;16.17;;;5.40;99.90;;;-141.84;88.54;18637.28;5032595;28;20213;-61
2022/11/29 06:11:18;;;;;;;20.30;14.90;;;5.40;99.90;;;-141.84;88.78;18641.34;5032931;28;20178;-61
2022/11/29 06:14:04;;;;;;;23.40;15.20;;;5.40;99.90;;;-141.84;88.93;18598.69;5032450;28;20229;-61
2022/11/29 06:17:11;;;;;;;21.53;14.80;;;5.40;99.90;;;-141.84;89.33;18576.31;5051760;28;20231;-61
2022/11/29 06:20:03;;;;;;;23.13;14.57;;;5.40;99.90;;;-141.84;89.54;18614.94;5052396;28;20225;-61
2022/11/29 06:23:05;;;;;;;20.43;14.47;;;5.40;99.90;;;-141.84;89.50;18584.47;5051609;28;20232;-60
2022/11/29 06:25:55;;;;;;;21.23;14.90;;;5.40;99.90;;;-141.84;89.77;18627.13;5061462;28;20269;-61
2022/11/29 06:28:49;;;;;;;19.47;14.13;;;5.40;99.90;;;-141.84;89.61;18608.84;5052503;28;20316;-60
2022/11/29 06:31:26;;;;;;;22.97;14.40;;;5.40;99.90;;;-141.84;89.25;18598.69;5051880;28;20240;-62
2022/11/29 06:34:06;;;;;;;22.20;15.33;;;5.50;99.90;;;-141.84;88.30;18586.50;5051927;28;20228;-61
2022/11/29 06:36:42;;;;;;;20.30;14.00;;;5.50;99.90;;;-141.84;88.24;18608.84;5051851;28;20232;-62
2022/11/29 06:39:13;;;;;;;22.23;14.43;;;5.50;99.90;;;-141.84;88.74;18598.69;5051705;28;20225;-62
2022/11/29 06:41:41;;;;;;;19.63;14.70;;;5.50;99.90;;;-141.84;88.84;18610.88;5047041;28;20712;-62
2022/11/29 06:44:11;;;;;;;22.77;14.60;;;5.40;99.90;;;-141.84;88.71;18584.47;5031952;28;20209;-60
2022/11/29 06:46:47;;;;;;;19.47;14.10;;;5.50;99.90;;;-141.84;88.97;18627.13;5032200;28;20259;-61
2022/11/29 06:49:27;;;;;;;19.23;13.37;;;5.50;99.90;;;-141.84;88.62;18604.78;5030647;28;20246;-61
2022/11/29 06:52:12;;;;;;;22.07;14.73;;;5.50;99.90;;;-141.84;88.73;18608.84;5031611;28;20230;-61
2022/11/29 06:55:10;;;;;;;20.87;14.57;;;5.50;99.90;;;-141.84;88.49;18602.75;5031788;28;20229;-61
2022/11/29 06:58:04;;;;;;;20.33;13.93;;;5.50;99.90;;;-141.84;88.86;18574.28;5031384;28;20229;-61
2022/11/29 07:00:49;;;;;;;21.47;15.00;;;5.40;99.90;;;-141.84;89.18;18600.72;5031562;28;20783;-60
2022/11/29 07:03:48;;;;;;;19.17;14.33;;;5.50;99.90;;;-141.84;89.34;18578.38;5031219;28;20319;-61
2022/11/29 07:06:22;;;;;;;20.57;14.43;;;5.50;99.90;;;-141.84;89.57;18580.41;5031341;28;20233;-60
2022/11/29 07:08:56;;;;;;;21.63;14.63;;;5.50;99.90;;;-141.84;89.59;18566.16;5031096;28;20229;-61
2022/11/29 07:11:27;;;;;;;19.87;13.93;;;5.50;99.90;;;-141.84;89.73;18586.50;5031452;28;20186;-60
2022/11/29 07:13:56;;;;;;;20.37;13.80;;;5.50;99.90;;;-141.84;89.54;18586.50;5031813;28;20495;-61
2022/11/29 07:16:31;;;;;;;19.23;14.53;;;5.50;99.90;;;-141.84;89.42;18598.69;5031124;28;20229;-60
2022/11/29 07:19:17;;;;;;;20.30;14.33;;;5.50;99.90;;;-141.84;88.68;18598.69;5031087;28;20228;-61
2022/11/29 07:21:59;;;;;;;24.93;15.73;;;5.60;99.90;;;-141.84;88.32;18602.75;5031168;28;20225;-61
2022/11/29 07:24:42;;;;;;;19.03;14.23;;;5.60;99.90;;;-141.84;88.31;18570.22;5030984;28;20779;-61
2022/11/29 07:27:24;;;;;;;25.33;14.87;;;5.60;99.90;;;-141.84;88.47;18608.84;5039377;28;20235;-60
2022/11/29 07:30:10;;;;;;;19.63;14.03;;;5.70;99.90;;;-141.84;88.50;18572.25;5045041;28;20225;-61
2022/11/29 07:32:58;;;;;;;20.00;13.77;;;5.60;99.90;;;-141.84;88.77;18584.47;5030857;28;20238;-62
2022/11/29 07:35:41;;;;;;;21.50;13.40;;;5.60;99.90;;;-141.84;88.88;18572.25;5031025;28;20198;-60
2022/11/29 07:38:21;;;;;;;19.43;14.00;;;5.70;99.90;;;-141.84;88.88;18598.69;5030420;28;20185;-61
2022/11/29 07:41:00;;;;;;;20.37;14.73;;;5.70;99.90;;;-141.84;88.42;18608.84;5031302;28;20193;-61
2022/11/29 07:43:50;;;;;;;18.83;13.30;;;5.70;99.90;;;-141.84;88.35;18592.59;5030152;28;20234;-61
2022/11/29 07:46:18;;;;;;;18.40;13.53;;;5.80;99.90;;;-141.84;88.15;18612.91;5030958;28;20651;-62
2022/11/29 07:48:46;;;;;;;17.90;12.63;;;5.80;99.90;;;-141.84;87.34;18598.69;5030034;28;20233;-62
2022/11/29 07:51:15;;;;;;;19.03;13.43;;;5.80;99.90;;;-141.84;87.53;18604.78;5030481;28;20665;-62
2022/11/29 07:53:45;;;;;;;18.47;13.30;;;5.80;99.90;;;-141.84;87.74;18602.75;5030441;28;20221;-61
2022/11/29 07:56:15;;;;;;;18.33;13.70;;;5.80;99.90;;;-141.84;87.79;18596.66;5030374;28;20209;-62
2022/11/29 07:58:44;;;;;;;18.83;14.80;;;5.90;99.90;;;-141.84;87.75;18631.19;5030625;28;20192;-62
2022/11/29 08:01:13;;;;;;;18.73;13.90;;;5.90;99.90;;;-141.84;87.04;18645.41;5029552;28;20229;-61
2022/11/29 08:03:42;;;;;;;18.10;13.60;;;6.00;99.90;;;-141.84;86.92;18596.66;5030264;28;20599;-62
2022/11/29 08:06:10;;;;;;;18.17;13.33;;;6.00;99.90;;;-141.84;86.62;18586.50;5030321;28;20224;-62
2022/11/29 08:08:38;;;;;;;19.07;13.67;;;6.10;99.90;;;-141.84;86.30;18627.13;5029500;28;20709;-63
2022/11/29 08:11:13;;;;;;;19.27;13.37;;;6.10;99.90;;;-141.84;86.57;18614.94;5030336;28;20225;-61
2022/11/29 08:13:41;;;;;;;22.20;13.67;;;6.00;99.90;;;-141.84;86.40;18625.09;5030597;28;20585;-61
2022/11/29 08:16:16;;;;;;;17.17;12.70;;;6.10;99.90;;;-141.84;85.68;18602.75;5030134;28;20238;-61
2022/11/29 08:18:45;;;;;;;17.97;12.80;;;6.20;99.90;;;-141.84;85.75;18610.88;5030064;28;20228;-61
2022/11/29 08:21:16;;;;;;;17.33;13.33;;;6.20;99.90;;;-141.84;85.49;18627.13;5030520;28;20283;-61
2022/11/29 08:23:45;;;;;;;15.87;12.93;;;6.20;99.90;;;-141.84;85.24;18641.34;5028589;28;20218;-61
2022/11/29 08:26:14;;;;;;;16.43;12.37;;;6.30;99.90;;;-141.84;85.09;18641.34;5026641;28;20202;-61
2022/11/29 08:28:42;;;;;;;19.23;13.43;;;6.30;99.90;;;-141.84;85.26;18635.25;5030623;28;20218;-62
2022/11/29 08:31:13;;;;;;;18.73;13.17;;;6.40;99.90;;;-141.84;84.54;18633.22;5029815;28;20701;-61
2022/11/29 08:33:43;;;;;;;19.23;12.87;;;6.50;99.90;;;-141.84;83.59;18681.97;5030552;28;20234;-61
2022/11/29 08:36:15;;;;;;;17.73;13.13;;;6.50;99.90;;;-141.84;83.03;18667.75;5030800;28;20225;-61
2022/11/29 08:38:44;;;;;;;16.60;12.20;;;6.50;99.90;;;-141.84;83.08;18694.16;5030651;28;20222;-62
2022/11/29 08:41:16;;;;;;;15.60;12.67;;;6.60;99.90;;;-141.84;83.10;18671.81;5030791;28;20205;-61
2022/11/29 08:43:44;;;;;;;16.33;12.70;;;6.60;99.90;;;-141.84;82.13;18684.00;5031526;28;20191;-61
2022/11/29 08:46:14;;;;;;;16.73;12.33;;;6.60;99.90;;;-141.84;81.93;18716.53;5030976;28;20565;-61
2022/11/29 08:48:46;;;;;;;17.40;13.00;;;6.70;99.90;;;-141.84;80.90;18696.19;5030691;28;20242;-61
2022/11/29 08:51:15;;;;;;;14.10;11.83;;;6.70;99.90;;;-141.84;79.51;18720.59;5031046;28;20230;-60
2022/11/29 08:53:43;;;;;;;15.97;12.23;;;6.80;99.90;;;-141.84;80.12;18724.66;5030651;28;20288;-61
2022/11/29 08:56:13;;;;;;;13.33;10.73;;;6.80;99.90;;;-141.84;81.13;18675.88;5030891;28;20551;-62
2022/11/29 08:59:02;;;;;;;15.27;12.33;;;6.90;99.90;;;-141.84;80.78;18716.53;5030897;28;20257;-61
2022/11/29 09:01:32;;;;;;;15.23;11.67;;;6.90;99.90;;;-141.84;79.98;18761.22;5030539;28;20299;-62
2022/11/29 09:04:02;;;;;;;17.67;12.70;;;6.90;99.90;;;-141.84;79.49;18738.88;5030521;28;20229;-61
2022/11/29 09:06:33;;;;;;;15.00;11.97;;;6.90;99.90;;;-141.84;79.86;18763.25;5030122;28;20780;-61
2022/11/29 09:09:02;;;;;;;17.07;12.67;;;6.90;99.90;;;-141.84;79.70;18747.00;5030259;28;20230;-62
2022/11/29 09:11:34;;;;;;;15.93;11.90;;;7.00;99.90;;;-141.84;78.75;18777.47;5030926;28;20295;-61
2022/11/29 09:14:06;;;;;;;15.87;12.17;;;7.00;99.90;;;-141.84;78.76;18740.91;5034608;28;20197;-61
2022/11/29 09:16:38;;;;;;;16.87;12.97;;;7.00;99.90;;;-141.84;78.69;18761.22;5054777;28;20575;-61
2022/11/29 09:19:07;;;;;;;16.73;12.43;;;7.00;99.90;;;-141.84;78.73;18777.47;5054184;28;20229;-62
2022/11/29 09:21:36;;;;;;;16.97;12.97;;;7.00;99.90;;;-141.84;78.51;18755.13;5054320;28;20767;-61
2022/11/29 09:24:06;;;;;;;15.53;12.30;;;7.00;99.90;;;-141.84;78.49;18738.88;5054067;28;20232;-61
2022/11/29 09:26:39;;;;;;;16.57;12.80;;;7.10;99.90;;;-141.84;78.66;18749.03;5054291;28;20233;-61
2022/11/29 09:29:08;;;;;;;17.67;13.47;;;7.20;99.90;;;-141.84;77.47;18787.63;5054236;28;20679;-62
2022/11/29 09:31:38;;;;;;;15.53;12.23;;;7.30;99.90;;;-141.84;75.74;18805.91;5054149;28;20221;-61
2022/11/29 09:34:06;;;;;;;14.73;12.33;;;7.30;99.90;;;-141.84;76.44;18826.25;5053650;28;20236;-61
2022/11/29 09:36:34;;;;;;;15.83;12.27;;;7.40;99.90;;;-141.84;75.47;18846.56;5053572;28;20239;-62
2022/11/29 09:39:03;;;;;;;17.73;13.07;;;7.30;99.90;;;-141.84;75.23;18826.25;5053504;28;20232;-61
2022/11/29 09:41:48;;;;;;;14.37;12.07;;;7.30;99.90;;;-141.84;74.61;18848.59;5053870;28;20229;-60
2022/11/29 09:44:33;;;;;;;14.27;11.07;;;7.40;99.90;;;-141.84;73.83;18852.66;5053713;28;20189;-61
2022/11/29 09:47:23;;;;;;;15.23;12.23;;;7.40;99.90;;;-141.84;74.73;18850.63;5054582;28;20192;-60
2022/11/29 09:50:21;;;;;;;17.30;12.23;;;7.40;99.90;;;-141.84;75.51;18828.28;5053830;28;20570;-61
2022/11/29 09:53:02;;;;;;;15.23;11.83;;;7.40;99.90;;;-141.84;74.72;18866.88;5054252;28;20284;-61
2022/11/29 09:55:49;;;;;;;15.70;11.63;;;7.50;99.90;;;-141.84;74.76;18838.44;5053443;28;20646;-61
2022/11/29 09:58:22;;;;;;;16.53;11.87;;;7.40;99.90;;;-141.84;74.96;18844.53;5053627;28;20234;-61
2022/11/29 10:00:57;;;;;;;17.93;12.20;;;7.50;99.90;;;-141.84;74.77;18854.69;5053519;28;20233;-61
2022/11/29 10:03:33;;;;;;;15.47;11.80;;;7.60;99.90;;;-141.84;75.05;18864.84;5053864;28;20307;-61
2022/11/29 10:06:08;;;;;;;14.17;11.30;;;7.50;99.90;;;-141.84;75.35;18852.66;5053160;28;20689;-61
2022/11/29 10:08:43;;;;;;;15.40;12.00;;;7.50;99.90;;;-141.84;75.40;18854.69;5053158;28;20742;-62
2022/11/29 10:11:26;;;;;;;16.50;12.30;;;7.50;99.90;;;-141.84;75.47;18824.22;5053604;28;20189;-61
2022/11/29 10:14:02;;;;;;;13.83;11.20;;;7.50;99.90;;;-141.84;75.87;18864.84;5053739;28;20192;-61
2022/11/29 10:16:44;;;;;;;13.33;11.43;;;7.60;99.90;;;-141.84;76.09;18834.38;5053099;28;20236;-61
2022/11/29 10:19:27;;;;;;;16.20;12.07;;;7.60;99.90;;;-141.84;75.06;18858.75;5053506;28;20229;-62
2022/11/29 10:22:03;;;;;;;14.23;11.37;;;7.60;99.90;;;-141.84;74.46;18887.19;5053466;28;20229;-61
2022/11/29 10:24:33;;;;;;;14.53;11.63;;;7.60;99.90;;;-141.84;73.68;18864.84;5051779;28;20232;-61
2022/11/29 10:27:03;;;;;;;14.20;11.87;;;7.70;99.90;;;-141.84;73.42;18883.13;5053567;28;20635;-61
2022/11/29 10:29:31;;;;;;;15.50;11.30;;;7.60;99.90;;;-141.84;73.63;18879.06;5052754;28;20237;-61
2022/11/29 10:32:04;;;;;;;14.33;11.00;;;7.60;99.90;;;-141.84;73.44;18911.56;5053384;28;20208;-60
2022/11/29 10:34:39;;;;;;;14.33;11.83;;;7.70;99.90;;;-141.84;73.33;18889.22;5053025;28;20216;-61
2022/11/29 10:37:15;;;;;;;16.30;12.50;;;7.60;99.90;;;-141.84;72.55;18903.44;5052862;28;20233;-61
2022/11/29 10:39:48;;;;;;;14.40;11.10;;;7.60;99.90;;;-141.84;71.55;18927.84;5052917;28;20224;-61
2022/11/29 10:45:17;;;;;;;15.27;12.40;;;7.80;99.90;;;-141.84;71.92;18942.06;5053086;28;20320;-61
2022/11/29 10:47:49;;;;;;;15.43;12.10;;;7.80;99.90;;;-141.84;71.78;18919.69;5052863;28;20294;-61
2022/11/29 10:50:25;;;;;;;15.43;11.63;;;7.90;99.90;;;-141.84;71.54;18950.19;5052523;28;20267;-61
2022/11/29 10:52:57;;;;;;;14.40;11.40;;;7.90;99.90;;;-141.84;71.94;18950.19;5053124;28;20196;-61
2022/11/29 10:55:34;;;;;;;14.90;11.73;;;7.90;99.90;;;-141.84;71.74;18952.22;5052469;28;20233;-62
2022/11/29 10:58:18;;;;;;;14.33;11.47;;;7.90;99.90;;;-141.84;72.18;18978.63;5052584;28;20229;-61